Time;durP1;ratioP1;P1;durP2;ratioP2;P2;SDS_P1;SDS_P2;PMS_P1;PMS_P2;Temp;Humidity;BMP_temperature;BMP_pressure;BME280_temperature;BME280_humidity;BME280_pressure;Samples;Min_cycle;Max_cycle;Signal;HPM_P1;HPM_P2
2022/10/22 00:01:56;;;;;;;0.10;0.10;;;13.30;99.90;;;;;;5005356;28;20346;-85
2022/10/22 00:04:21;;;;;;;0.10;0.10;;;13.30;99.90;;;;;;5007148;28;20648;-86
2022/10/22 00:06:47;;;;;;;0.10;0.10;;;13.30;99.90;;;;;;4978495;28;20180;-84
2022/10/22 00:09:13;;;;;;;0.10;0.10;;;13.30;99.90;;;;;;4997012;28;20181;-85
2022/10/22 00:11:40;;;;;;;0.10;0.10;;;13.30;99.90;;;;;;5002946;28;20663;-86
2022/10/22 00:14:05;;;;;;;0.10;0.10;;;13.30;99.90;;;;;;5007791;28;20447;-84
2022/10/22 00:16:31;;;;;;;0.10;0.10;;;13.30;99.90;;;;;;4989837;28;20470;-86
2022/10/22 00:18:56;;;;;;;0.10;0.10;;;13.30;99.90;;;;;;5005633;28;20196;-86
2022/10/22 00:21:22;;;;;;;0.10;0.10;;;13.30;99.90;;;;;;5007972;28;20188;-86
2022/10/22 00:23:48;;;;;;;0.10;0.10;;;13.30;99.90;;;;;;5002086;28;20684;-85
2022/10/22 00:26:13;;;;;;;0.10;0.10;;;13.30;99.90;;;;;;5007901;28;20563;-85
2022/10/22 00:28:39;;;;;;;0.10;0.10;;;13.30;99.90;;;;;;5008172;28;20196;-85
2022/10/22 00:31:05;;;;;;;0.10;0.10;;;13.30;99.90;;;;;;5008110;28;20533;-85
2022/10/22 00:33:31;;;;;;;0.10;0.10;;;13.30;99.90;;;;;;4986852;28;20563;-85
2022/10/22 00:35:56;;;;;;;0.10;0.10;;;13.30;99.90;;;;;;5007932;28;20435;-85
2022/10/22 00:38:22;;;;;;;0.10;0.10;;;13.30;99.90;;;;;;5009910;28;20318;-85
2022/10/22 00:40:48;;;;;;;0.10;0.10;;;13.30;99.90;;;;;;4987294;28;20192;-86
2022/10/22 00:43:17;;;;;;;0.10;0.10;;;13.30;99.90;;;;;;5001984;28;20668;-85
2022/10/22 00:45:43;;;;;;;0.10;0.10;;;13.30;99.90;;;;;;5004932;28;20470;-85
2022/10/22 00:48:30;;;;;;;0.10;0.10;;;13.30;99.90;;;;;;4999884;28;20455;-86
2022/10/22 00:51:05;;;;;;;0.10;0.10;;;13.30;99.90;;;;;;5006348;28;20490;-87
2022/10/22 00:53:40;;;;;;;0.10;0.10;;;13.30;99.90;;;;;;5005669;28;20450;-85
2022/10/22 00:56:07;;;;;;;0.10;0.10;;;13.30;99.90;;;;;;5000559;28;20535;-86
2022/10/22 00:58:37;;;;;;;0.10;0.10;;;13.30;99.90;;;;;;5004959;28;20462;-86
2022/10/22 01:01:05;;;;;;;0.13;0.13;;;13.30;99.90;;;;;;4987437;28;20443;-85
2022/10/22 01:03:31;;;;;;;0.10;0.10;;;13.30;99.90;;;;;;5011529;28;20939;-85
2022/10/22 01:05:59;;;;;;;0.10;0.10;;;13.30;99.90;;;;;;5011425;28;20878;-86
2022/10/22 01:08:34;;;;;;;0.10;0.10;;;13.30;99.90;;;;;;5007712;28;20443;-85
2022/10/22 01:11:22;;;;;;;0.10;0.10;;;13.30;99.90;;;;;;5006976;28;20438;-85
2022/10/22 01:14:17;;;;;;;0.10;0.10;;;13.30;99.90;;;;;;5011217;28;20451;-87
2022/10/22 01:16:58;;;;;;;0.10;0.10;;;13.30;99.90;;;;;;5006426;28;21297;-85
2022/10/22 01:19:54;;;;;;;0.10;0.10;;;13.30;99.90;;;;;;5002016;28;20446;-85
2022/10/22 01:22:30;;;;;;;0.10;0.10;;;13.30;99.90;;;;;;5002033;28;20439;-85
2022/10/22 01:25:08;;;;;;;0.10;0.10;;;13.30;99.90;;;;;;5007666;28;20442;-86
2022/10/22 01:27:58;;;;;;;0.10;0.10;;;13.30;99.90;;;;;;5009570;28;20450;-86
2022/10/22 01:30:24;;;;;;;0.10;0.10;;;13.30;99.90;;;;;;5002750;28;20490;-86
2022/10/22 01:32:54;;;;;;;0.10;0.10;;;13.30;99.90;;;;;;5007771;28;20454;-86
2022/10/22 01:35:31;;;;;;;0.10;0.10;;;13.30;99.90;;;;;;5009316;28;21005;-85
2022/10/22 01:38:00;;;;;;;0.10;0.10;;;13.30;99.90;;;;;;5009331;28;20548;-86
2022/10/22 01:40:27;;;;;;;0.10;0.10;;;13.30;99.90;;;;;;5001629;28;20924;-86
2022/10/22 01:43:01;;;;;;;0.10;0.10;;;13.30;99.90;;;;;;5005297;28;20454;-86
2022/10/22 01:45:31;;;;;;;0.10;0.10;;;13.30;99.90;;;;;;5006763;28;21122;-86
2022/10/22 01:48:16;;;;;;;0.10;0.10;;;13.30;99.90;;;;;;4984893;28;20795;-86
2022/10/22 01:51:04;;;;;;;0.10;0.10;;;13.30;99.90;;;;;;5011486;28;20450;-85
2022/10/22 01:53:53;;;;;;;0.10;0.10;;;13.30;99.90;;;;;;5001869;28;20950;-85
2022/10/22 01:57:04;;;;;;;0.10;0.10;;;13.30;99.90;;;;;;5008112;28;20440;-85
2022/10/22 01:59:58;;;;;;;0.10;0.10;;;13.30;99.90;;;;;;5008352;28;20461;-86
2022/10/22 02:02:49;;;;;;;0.10;0.10;;;13.30;99.90;;;;;;5008836;28;20886;-86
2022/10/22 02:05:35;;;;;;;0.10;0.10;;;13.30;99.90;;;;;;4998926;28;20476;-85
2022/10/22 02:08:18;;;;;;;0.10;0.10;;;13.30;99.90;;;;;;5006833;28;20529;-85
2022/10/22 02:10:46;;;;;;;0.10;0.10;;;13.30;99.90;;;;;;5000213;28;20440;-85
2022/10/22 02:13:17;;;;;;;0.10;0.10;;;13.30;99.90;;;;;;5005611;28;20458;-86
2022/10/22 02:15:45;;;;;;;0.10;0.10;;;13.30;99.90;;;;;;4981826;28;20831;-86
2022/10/22 02:18:11;;;;;;;0.10;0.10;;;13.30;99.90;;;;;;4990121;28;20475;-86
2022/10/22 02:20:39;;;;;;;0.10;0.10;;;13.30;99.90;;;;;;5007278;28;20526;-85
2022/10/22 02:23:05;;;;;;;0.10;0.10;;;13.30;99.90;;;;;;5011055;28;20542;-84
2022/10/22 02:25:36;;;;;;;0.10;0.10;;;13.30;99.90;;;;;;4988359;28;20566;-85
2022/10/22 02:28:21;;;;;;;0.10;0.10;;;13.30;99.90;;;;;;4993304;28;20193;-85
2022/10/22 02:30:53;;;;;;;0.10;0.10;;;13.30;99.90;;;;;;5007704;28;20431;-85
2022/10/22 02:33:25;;;;;;;0.10;0.10;;;13.30;99.90;;;;;;4990931;28;20505;-86
2022/10/22 02:35:51;;;;;;;0.10;0.10;;;13.30;99.90;;;;;;4989951;28;20443;-85
2022/10/22 02:38:18;;;;;;;0.10;0.10;;;13.30;99.90;;;;;;5009272;28;20483;-86
2022/10/22 02:40:44;;;;;;;0.10;0.10;;;13.30;99.90;;;;;;5007674;28;20814;-86
2022/10/22 02:43:09;;;;;;;0.10;0.10;;;13.30;99.90;;;;;;4994077;28;20443;-87
2022/10/22 02:45:35;;;;;;;0.10;0.10;;;13.30;99.90;;;;;;5008327;28;20512;-84
2022/10/22 02:48:01;;;;;;;0.10;0.10;;;13.40;99.90;;;;;;5010363;28;20271;-85
2022/10/22 02:50:26;;;;;;;0.10;0.10;;;13.40;99.90;;;;;;5009628;28;20858;-85
2022/10/22 02:52:52;;;;;;;0.10;0.10;;;13.30;99.90;;;;;;5009617;28;20191;-85
2022/10/22 02:55:17;;;;;;;0.10;0.10;;;13.30;99.90;;;;;;5010250;28;20192;-86
2022/10/22 02:57:43;;;;;;;0.10;0.10;;;13.30;99.90;;;;;;5007214;28;20307;-85
2022/10/22 03:00:10;;;;;;;0.10;0.10;;;13.30;99.90;;;;;;4989096;28;20204;-85
2022/10/22 03:02:35;;;;;;;0.10;0.10;;;13.40;99.90;;;;;;4993552;28;20191;-85
2022/10/22 03:05:01;;;;;;;0.10;0.10;;;13.40;99.90;;;;;;4991592;28;20440;-85
2022/10/22 03:07:27;;;;;;;0.10;0.10;;;13.40;99.90;;;;;;5006237;28;20188;-86
2022/10/22 03:09:52;;;;;;;0.10;0.10;;;13.40;99.90;;;;;;4991864;28;20211;-86
2022/10/22 03:12:18;;;;;;;0.10;0.10;;;13.40;99.90;;;;;;4994853;28;20192;-86
2022/10/22 03:14:43;;;;;;;0.10;0.10;;;13.40;99.90;;;;;;4985380;28;20188;-85
2022/10/22 03:17:09;;;;;;;0.10;0.10;;;13.40;99.90;;;;;;4991655;28;20218;-85
2022/10/22 03:19:34;;;;;;;0.10;0.10;;;13.30;99.90;;;;;;5009931;28;20219;-85
2022/10/22 03:22:12;;;;;;;0.10;0.10;;;13.30;99.90;;;;;;5003954;28;20188;-85
2022/10/22 03:24:41;;;;;;;0.10;0.10;;;13.30;99.90;;;;;;5003935;28;20571;-85
2022/10/22 03:27:07;;;;;;;0.10;0.10;;;13.20;99.90;;;;;;5006283;28;20446;-85
2022/10/22 03:29:36;;;;;;;0.10;0.10;;;13.30;99.90;;;;;;5009086;28;20451;-85
2022/10/22 03:32:02;;;;;;;0.10;0.10;;;13.30;99.90;;;;;;5003378;28;20958;-84
2022/10/22 03:34:27;;;;;;;0.10;0.10;;;13.20;99.90;;;;;;4981232;28;20439;-85
2022/10/22 03:36:55;;;;;;;0.10;0.10;;;13.20;99.90;;;;;;5005567;28;20244;-85
2022/10/22 03:39:21;;;;;;;0.10;0.10;;;13.30;99.90;;;;;;5004106;28;20241;-84
2022/10/22 03:41:49;;;;;;;0.10;0.10;;;13.30;99.90;;;;;;5009262;28;20450;-85
2022/10/22 03:44:15;;;;;;;0.10;0.10;;;13.20;99.90;;;;;;5002145;28;20486;-84
2022/10/22 03:46:41;;;;;;;0.10;0.10;;;13.10;99.90;;;;;;4990469;28;20439;-84
2022/10/22 03:49:06;;;;;;;0.10;0.10;;;13.10;99.90;;;;;;5004314;28;20454;-85
2022/10/22 03:51:32;;;;;;;0.10;0.10;;;13.00;99.90;;;;;;4987858;28;20228;-86
2022/10/22 03:53:58;;;;;;;0.10;0.10;;;13.00;99.90;;;;;;5007780;28;20667;-86
2022/10/22 03:56:23;;;;;;;0.10;0.10;;;13.00;99.90;;;;;;5009584;28;20202;-86
2022/10/22 03:58:49;;;;;;;0.10;0.10;;;13.00;99.90;;;;;;5008752;28;20274;-85
2022/10/22 04:01:14;;;;;;;0.10;0.10;;;13.00;99.90;;;;;;4989297;28;20233;-84
2022/10/22 04:03:40;;;;;;;0.10;0.10;;;12.90;99.90;;;;;;4987831;28;20193;-86
2022/10/22 04:06:11;;;;;;;0.10;0.10;;;13.00;99.90;;;;;;5001698;28;20184;-85
2022/10/22 04:08:41;;;;;;;0.10;0.10;;;12.90;99.90;;;;;;5008429;28;20225;-87
2022/10/22 04:11:07;;;;;;;0.10;0.10;;;12.90;99.90;;;;;;5007244;28;20943;-86
2022/10/22 04:13:33;;;;;;;0.10;0.10;;;13.00;99.90;;;;;;4999396;28;20454;-86
2022/10/22 04:16:20;;;;;;;0.10;0.10;;;13.00;99.90;;;;;;4981840;28;20204;-86
2022/10/22 04:18:47;;;;;;;0.10;0.10;;;13.00;99.90;;;;;;4996219;28;20509;-86
2022/10/22 04:21:15;;;;;;;0.10;0.10;;;12.90;99.90;;;;;;5006167;28;20435;-85
2022/10/22 04:23:45;;;;;;;0.10;0.10;;;13.00;99.90;;;;;;5007660;28;20447;-85
2022/10/22 04:26:10;;;;;;;0.10;0.10;;;13.00;99.90;;;;;;5002232;28;20447;-86
2022/10/22 04:28:36;;;;;;;0.10;0.10;;;12.90;99.90;;;;;;5002281;28;20987;-85
2022/10/22 04:31:10;;;;;;;0.10;0.10;;;13.00;99.90;;;;;;5003206;28;20267;-85
2022/10/22 04:33:36;;;;;;;0.10;0.10;;;13.00;99.90;;;;;;5000024;28;20215;-85
2022/10/22 04:36:18;;;;;;;0.10;0.10;;;13.00;99.90;;;;;;5006787;28;20434;-85
2022/10/22 04:38:45;;;;;;;0.10;0.10;;;13.00;99.90;;;;;;4998158;28;20543;-84
2022/10/22 04:41:19;;;;;;;0.10;0.10;;;13.00;99.90;;;;;;4999584;28;20863;-84
2022/10/22 04:43:45;;;;;;;0.10;0.10;;;13.00;99.90;;;;;;5004948;28;20447;-84
2022/10/22 04:46:13;;;;;;;0.10;0.10;;;13.00;99.90;;;;;;5003713;28;21137;-84
2022/10/22 04:48:41;;;;;;;0.10;0.10;;;13.00;99.90;;;;;;5006506;28;20439;-86
2022/10/22 04:51:09;;;;;;;0.10;0.10;;;13.00;99.90;;;;;;4993211;28;20443;-84
2022/10/22 04:53:34;;;;;;;0.10;0.10;;;13.00;99.90;;;;;;4998880;28;20501;-86
2022/10/22 04:56:18;;;;;;;0.10;0.10;;;13.00;99.90;;;;;;5004492;28;20439;-85
2022/10/22 04:58:44;;;;;;;0.10;0.10;;;13.00;99.90;;;;;;4985850;28;20208;-84
2022/10/22 05:01:14;;;;;;;0.10;0.10;;;13.00;99.90;;;;;;4991751;28;20456;-84
2022/10/22 05:03:40;;;;;;;0.10;0.10;;;12.90;99.90;;;;;;5005915;28;20196;-85
2022/10/22 05:06:07;;;;;;;0.10;0.10;;;12.90;99.90;;;;;;5006210;28;20573;-86
2022/10/22 05:08:32;;;;;;;0.10;0.10;;;12.90;99.90;;;;;;4993250;28;20192;-85
2022/10/22 05:10:58;;;;;;;0.10;0.10;;;12.90;99.90;;;;;;4989687;28;20453;-84
2022/10/22 05:13:24;;;;;;;0.10;0.10;;;13.00;99.90;;;;;;5002546;28;20188;-85
2022/10/22 05:15:49;;;;;;;0.10;0.10;;;12.90;99.90;;;;;;4998503;28;20201;-85
2022/10/22 05:18:15;;;;;;;0.10;0.10;;;12.90;99.90;;;;;;5008423;28;20239;-84
2022/10/22 05:20:41;;;;;;;0.10;0.10;;;12.90;99.90;;;;;;4977873;28;20251;-84
2022/10/22 05:23:06;;;;;;;0.10;0.10;;;12.90;99.90;;;;;;5005838;28;20189;-83
2022/10/22 05:25:37;;;;;;;0.10;0.10;;;12.90;99.90;;;;;;5005770;28;20446;-84
2022/10/22 05:28:02;;;;;;;0.10;0.10;;;12.90;99.90;;;;;;5004752;28;20184;-86
2022/10/22 05:30:28;;;;;;;0.10;0.10;;;12.90;99.90;;;;;;5012516;28;20448;-88
2022/10/22 05:32:53;;;;;;;0.10;0.10;;;12.80;99.90;;;;;;5005851;28;20195;-85
2022/10/22 05:35:19;;;;;;;0.10;0.10;;;12.80;99.90;;;;;;5007241;28;20192;-87
2022/10/22 05:37:44;;;;;;;0.10;0.10;;;12.80;99.90;;;;;;4996063;28;20846;-86
2022/10/22 05:40:10;;;;;;;0.10;0.10;;;12.80;99.90;;;;;;5006571;28;20189;-86
2022/10/22 05:42:35;;;;;;;0.10;0.10;;;12.80;99.90;;;;;;5004598;28;20196;-86
2022/10/22 05:45:01;;;;;;;0.10;0.10;;;12.80;99.90;;;;;;5005376;28;21274;-87
2022/10/22 05:47:29;;;;;;;0.10;0.10;;;12.80;99.90;;;;;;5006281;28;20196;-85
2022/10/22 05:49:56;;;;;;;0.10;0.10;;;12.80;99.90;;;;;;5001074;28;20274;-85
2022/10/22 05:52:22;;;;;;;0.10;0.10;;;12.80;99.90;;;;;;5008911;28;20457;-87
2022/10/22 05:54:47;;;;;;;0.10;0.10;;;12.80;99.90;;;;;;4987942;28;20436;-87
2022/10/22 05:57:13;;;;;;;0.10;0.10;;;12.70;99.90;;;;;;5008420;28;20491;-84
2022/10/22 05:59:38;;;;;;;0.10;0.10;;;12.70;99.90;;;;;;5010156;28;20223;-87
2022/10/22 06:02:04;;;;;;;0.10;0.10;;;12.70;99.90;;;;;;4997535;28;20264;-86
2022/10/22 06:04:29;;;;;;;0.10;0.10;;;12.70;99.90;;;;;;5004082;28;20293;-86
2022/10/22 06:06:55;;;;;;;0.10;0.10;;;12.70;99.90;;;;;;5006338;28;20192;-89
2022/10/22 06:09:25;;;;;;;0.10;0.10;;;12.80;99.90;;;;;;5002004;28;20211;-89
2022/10/22 06:11:52;;;;;;;0.10;0.10;;;12.70;99.90;;;;;;5009253;28;20185;-87
2022/10/22 06:14:19;;;;;;;0.10;0.10;;;12.70;99.90;;;;;;5009669;28;20451;-87
2022/10/22 06:16:44;;;;;;;0.10;0.10;;;12.70;99.90;;;;;;5009238;28;20517;-86
2022/10/22 06:19:15;;;;;;;0.10;0.10;;;12.70;99.90;;;;;;5011121;28;20506;-86
2022/10/22 06:21:41;;;;;;;0.10;0.10;;;12.70;99.90;;;;;;5003248;28;20234;-86
2022/10/22 06:24:08;;;;;;;0.10;0.10;;;12.70;99.90;;;;;;5002905;28;20454;-87
2022/10/22 06:26:33;;;;;;;0.10;0.10;;;12.70;99.90;;;;;;5009598;28;20188;-87
2022/10/22 06:28:59;;;;;;;0.10;0.10;;;12.60;99.90;;;;;;4989129;28;20471;-87
2022/10/22 06:31:26;;;;;;;0.10;0.10;;;12.70;99.90;;;;;;5002630;28;20188;-87
2022/10/22 06:33:52;;;;;;;0.10;0.10;;;12.70;99.90;;;;;;4991687;28;20211;-88
2022/10/22 06:36:20;;;;;;;0.20;0.20;;;12.60;99.90;;;;;;5006877;28;21250;-86
2022/10/22 06:38:50;;;;;;;0.10;0.10;;;12.60;99.90;;;;;;4997456;28;20188;-85
2022/10/22 06:41:16;;;;;;;0.10;0.10;;;12.60;99.90;;;;;;4991940;28;20497;-85
2022/10/22 06:43:46;;;;;;;0.10;0.10;;;12.60;99.90;;;;;;4998431;28;20458;-86
2022/10/22 06:46:13;;;;;;;0.10;0.10;;;12.60;99.90;;;;;;4989158;28;20181;-86
2022/10/22 06:48:39;;;;;;;0.10;0.10;;;12.60;99.90;;;;;;5004446;28;20439;-84
2022/10/22 06:51:08;;;;;;;0.10;0.10;;;12.70;99.90;;;;;;4992896;28;20441;-88
2022/10/22 06:53:34;;;;;;;0.10;0.10;;;12.60;99.90;;;;;;4988414;28;20208;-84
2022/10/22 06:56:08;;;;;;;0.10;0.10;;;12.50;99.90;;;;;;4990985;28;21025;-83
2022/10/22 06:58:34;;;;;;;0.10;0.10;;;12.50;99.90;;;;;;4992261;28;20486;-85
2022/10/22 07:01:05;;;;;;;0.10;0.10;;;12.50;99.90;;;;;;5000858;28;20509;-84
2022/10/22 07:03:30;;;;;;;0.10;0.10;;;12.50;99.90;;;;;;4997460;28;20597;-85
2022/10/22 07:05:59;;;;;;;0.10;0.10;;;12.50;99.90;;;;;;5006969;28;20530;-84
2022/10/22 07:08:25;;;;;;;0.10;0.10;;;12.50;99.90;;;;;;5007691;28;20188;-84
2022/10/22 07:10:50;;;;;;;0.10;0.10;;;12.50;99.90;;;;;;5005437;28;20448;-85
2022/10/22 07:13:16;;;;;;;0.10;0.10;;;12.60;99.90;;;;;;5006857;28;20246;-85
2022/10/22 07:15:41;;;;;;;0.10;0.10;;;12.60;99.90;;;;;;5001940;28;20184;-83
2022/10/22 07:18:08;;;;;;;0.10;0.10;;;12.60;99.90;;;;;;5001626;28;20641;-84
2022/10/22 07:20:35;;;;;;;0.10;0.10;;;12.60;99.90;;;;;;4991280;28;20271;-83
2022/10/22 07:23:00;;;;;;;0.10;0.10;;;12.60;99.90;;;;;;4970915;28;20525;-85
2022/10/22 07:25:26;;;;;;;0.10;0.10;;;12.60;99.90;;;;;;4994428;28;20443;-85
2022/10/22 07:27:51;;;;;;;0.10;0.10;;;12.60;99.90;;;;;;5008270;28;20203;-84
2022/10/22 07:30:17;;;;;;;0.10;0.10;;;12.70;99.90;;;;;;4990811;28;20193;-84
2022/10/22 07:32:42;;;;;;;0.10;0.10;;;12.70;99.90;;;;;;5001008;28;20185;-84
2022/10/22 07:35:08;;;;;;;0.10;0.10;;;12.70;99.90;;;;;;5008495;28;20203;-84
2022/10/22 07:37:33;;;;;;;0.10;0.10;;;12.80;99.90;;;;;;5000051;28;20268;-86
2022/10/22 07:39:59;;;;;;;0.10;0.10;;;12.80;99.90;;;;;;5006181;28;21131;-83
2022/10/22 07:42:24;;;;;;;0.10;0.10;;;12.70;99.90;;;;;;5003677;28;20673;-85
2022/10/22 07:44:50;;;;;;;0.10;0.10;;;12.80;99.90;;;;;;4985137;28;20199;-85
2022/10/22 07:47:15;;;;;;;0.10;0.10;;;12.80;99.90;;;;;;5001470;28;20188;-84
2022/10/22 07:49:41;;;;;;;0.10;0.10;;;12.80;99.90;;;;;;5005852;28;20196;-84
2022/10/22 07:52:07;;;;;;;0.10;0.10;;;12.90;99.90;;;;;;5006519;28;20196;-86
2022/10/22 07:54:32;;;;;;;0.10;0.10;;;12.90;99.90;;;;;;5003629;28;20184;-86
2022/10/22 07:56:58;;;;;;;0.10;0.10;;;12.90;99.90;;;;;;5007254;28;20250;-85
2022/10/22 07:59:23;;;;;;;0.10;0.10;;;12.90;99.90;;;;;;4988897;28;20203;-84
2022/10/22 08:01:49;;;;;;;0.10;0.10;;;12.90;99.90;;;;;;4984844;28;20184;-85
2022/10/22 08:04:14;;;;;;;0.10;0.10;;;12.90;99.90;;;;;;5004456;28;20195;-85
2022/10/22 08:06:39;;;;;;;0.10;0.10;;;12.90;99.90;;;;;;4999723;28;20268;-82
2022/10/22 08:09:05;;;;;;;0.10;0.10;;;12.90;99.90;;;;;;5002430;28;20663;-83
2022/10/22 08:11:32;;;;;;;0.10;0.10;;;12.90;99.90;;;;;;5000079;28;20725;-85
2022/10/22 08:13:58;;;;;;;0.10;0.10;;;12.90;99.90;;;;;;4986586;28;20228;-83
2022/10/22 08:16:23;;;;;;;0.10;0.10;;;12.90;99.90;;;;;;5007309;28;20548;-86
2022/10/22 08:18:50;;;;;;;0.20;0.20;;;13.00;99.90;;;;;;4989515;28;20193;-86
2022/10/22 08:21:16;;;;;;;0.10;0.10;;;13.10;99.90;;;;;;4999001;28;20668;-84
2022/10/22 08:23:42;;;;;;;0.10;0.10;;;13.10;99.90;;;;;;4997949;28;20447;-86
2022/10/22 08:26:08;;;;;;;0.10;0.10;;;13.10;99.90;;;;;;5001541;28;20552;-83
2022/10/22 08:28:35;;;;;;;0.10;0.10;;;13.10;99.90;;;;;;4989233;28;20501;-84
2022/10/22 08:31:06;;;;;;;0.10;0.10;;;13.20;99.90;;;;;;5002677;28;20439;-82
2022/10/22 08:33:32;;;;;;;0.10;0.10;;;13.20;99.90;;;;;;4990164;28;20459;-84
2022/10/22 08:35:57;;;;;;;0.10;0.10;;;13.20;99.90;;;;;;4990257;28;20443;-83
2022/10/22 08:38:23;;;;;;;0.20;0.20;;;13.30;99.90;;;;;;5005812;28;20968;-84
2022/10/22 08:41:13;;;;;;;0.10;0.10;;;13.30;99.90;;;;;;5003080;28;20200;-84
2022/10/22 08:44:21;;;;;;;0.10;0.10;;;13.30;99.90;;;;;;4988235;28;20192;-83
2022/10/22 08:47:14;;;;;;;0.10;0.10;;;13.30;99.90;;;;;;4911563;29;20446;-85
2022/10/22 08:49:41;;;;;;;0.10;0.10;;;13.40;99.90;;;;;;5006581;28;20478;-84
2022/10/22 08:52:13;;;;;;;0.10;0.10;;;13.40;99.90;;;;;;5000908;28;20530;-85
2022/10/22 08:54:53;;;;;;;0.10;0.10;;;13.40;99.90;;;;;;5003064;28;20542;-86
2022/10/22 08:57:41;;;;;;;0.10;0.10;;;13.40;99.90;;;;;;5007878;28;20490;-82
2022/10/22 09:00:12;;;;;;;0.10;0.10;;;13.40;99.90;;;;;;4951196;28;20676;-84
2022/10/22 09:03:00;;;;;;;0.10;0.10;;;13.40;99.90;;;;;;4987352;28;20497;-84
2022/10/22 09:05:55;;;;;;;0.10;0.10;;;13.40;99.90;;;;;;4991080;28;20444;-84
2022/10/22 09:08:21;;;;;;;0.10;0.10;;;13.40;99.90;;;;;;4988114;28;20450;-85
2022/10/22 09:10:52;;;;;;;0.10;0.10;;;13.30;99.90;;;;;;5007696;28;20983;-85
2022/10/22 09:13:20;;;;;;;0.10;0.10;;;13.30;99.90;;;;;;5005320;28;20439;-84
2022/10/22 09:15:53;;;;;;;0.10;0.10;;;13.20;99.90;;;;;;5004884;28;20450;-85
2022/10/22 09:18:56;;;;;;;0.10;0.10;;;13.30;99.90;;;;;;5005693;28;21354;-83
2022/10/22 09:21:45;;;;;;;0.10;0.10;;;13.30;99.90;;;;;;4991979;28;20432;-84
2022/10/22 09:24:17;;;;;;;0.10;0.10;;;13.40;99.90;;;;;;5004941;28;20539;-84
2022/10/22 09:26:43;;;;;;;0.10;0.10;;;13.40;99.90;;;;;;4988292;28;20443;-83
2022/10/22 09:29:18;;;;;;;0.10;0.10;;;13.40;99.90;;;;;;4989820;28;20773;-82
2022/10/22 09:31:43;;;;;;;0.10;0.10;;;13.40;99.90;;;;;;4997600;28;20199;-82
2022/10/22 09:34:12;;;;;;;0.10;0.10;;;13.50;99.90;;;;;;5005046;28;20440;-83
2022/10/22 09:36:38;;;;;;;0.10;0.10;;;13.50;99.90;;;;;;5009058;28;20923;-84
2022/10/22 09:39:03;;;;;;;0.10;0.10;;;13.50;99.90;;;;;;4979965;28;20447;-84
2022/10/22 09:41:29;;;;;;;0.10;0.10;;;13.50;99.90;;;;;;5009201;28;20181;-87
2022/10/22 09:43:56;;;;;;;0.10;0.10;;;13.60;99.90;;;;;;4997632;28;20193;-87
2022/10/22 09:46:25;;;;;;;0.10;0.10;;;13.70;99.90;;;;;;5004555;28;20801;-86
2022/10/22 09:49:00;;;;;;;0.10;0.10;;;13.60;99.90;;;;;;4988811;28;21026;-87
2022/10/22 09:51:45;;;;;;;0.10;0.10;;;13.70;99.90;;;;;;5007646;28;20446;-85
2022/10/22 09:54:17;;;;;;;0.10;0.10;;;13.80;99.90;;;;;;5006443;28;20434;-85
2022/10/22 09:56:50;;;;;;;0.10;0.10;;;13.80;99.90;;;;;;5008356;28;20480;-87
2022/10/22 09:59:17;;;;;;;0.10;0.10;;;13.80;99.90;;;;;;5013179;28;20577;-88
2022/10/22 10:01:43;;;;;;;0.10;0.10;;;13.80;99.90;;;;;;4992604;28;20443;-89
2022/10/22 10:04:16;;;;;;;0.10;0.10;;;13.80;99.90;;;;;;5005408;28;20464;-87
2022/10/22 10:06:43;;;;;;;0.10;0.10;;;13.90;99.90;;;;;;4992453;28;20504;-88
2022/10/22 10:09:18;;;;;;;0.10;0.10;;;13.90;99.90;;;;;;5000803;28;20482;-87
2022/10/22 10:12:00;;;;;;;0.10;0.10;;;13.90;99.90;;;;;;5005675;28;20450;-85
2022/10/22 10:14:36;;;;;;;0.10;0.10;;;14.00;99.90;;;;;;5002609;28;21012;-84
2022/10/22 10:17:19;;;;;;;0.10;0.10;;;14.20;99.90;;;;;;4996784;28;20470;-84
2022/10/22 10:20:08;;;;;;;0.10;0.10;;;14.40;99.90;;;;;;4997806;28;20526;-85
2022/10/22 10:22:50;;;;;;;0.10;0.10;;;14.70;99.90;;;;;;5011217;28;20469;-86
2022/10/22 10:25:22;;;;;;;0.10;0.10;;;14.90;99.90;;;;;;5007934;28;20439;-86
2022/10/22 10:28:08;;;;;;;0.10;0.10;;;14.90;99.90;;;;;;5010245;28;20535;-83
2022/10/22 10:30:39;;;;;;;0.10;0.10;;;15.00;99.90;;;;;;4994917;28;20448;-83
2022/10/22 10:33:26;;;;;;;0.10;0.10;;;15.00;99.90;;;;;;4993428;28;20451;-87
2022/10/22 10:36:05;;;;;;;0.10;0.10;;;15.00;99.90;;;;;;4995864;28;20526;-86
2022/10/22 10:38:50;;;;;;;0.10;0.10;;;15.50;99.90;;;;;;5007900;28;20526;-88
2022/10/22 10:41:35;;;;;;;0.10;0.10;;;16.60;99.90;;;;;;5004655;28;20932;-88
2022/10/22 10:44:19;;;;;;;0.10;0.10;;;17.20;99.90;;;;;;4991858;28;20513;-87
2022/10/22 10:47:29;;;;;;;0.10;0.10;;;17.40;99.90;;;;;;5008551;28;20454;-85
2022/10/22 10:50:15;;;;;;;0.10;0.10;;;18.10;99.90;;;;;;4960349;28;20867;-87
2022/10/22 10:53:01;;;;;;;0.10;0.10;;;18.60;99.90;;;;;;4996327;28;20965;-85
2022/10/22 10:55:47;;;;;;;0.10;0.00;;;18.50;99.90;;;;;;5004723;28;20439;-84
2022/10/22 10:58:32;;;;;;;0.10;0.00;;;18.60;99.90;;;;;;5009756;28;20479;-85
2022/10/22 11:01:11;;;;;;;0.10;0.00;;;19.20;99.90;;;;;;5000611;28;20787;-85
2022/10/22 11:04:05;;;;;;;0.10;0.00;;;19.60;99.90;;;;;;5002231;28;20451;-86
2022/10/22 11:06:33;;;;;;;0.10;0.00;;;20.20;99.90;;;;;;4997059;28;20498;-86
2022/10/22 11:09:06;;;;;;;0.10;0.00;;;20.30;99.90;;;;;;5004745;28;21073;-85
2022/10/22 11:11:39;;;;;;;0.10;0.00;;;20.30;99.90;;;;;;4991291;28;20445;-87
2022/10/22 11:14:20;;;;;;;0.10;0.00;;;20.80;99.90;;;;;;4991833;28;20466;-86
2022/10/22 11:17:05;;;;;;;0.10;0.00;;;20.90;99.90;;;;;;5000308;28;20439;-88
2022/10/22 11:19:55;;;;;;;0.10;0.00;;;20.90;99.90;;;;;;4989205;28;20462;-87
2022/10/22 11:22:40;;;;;;;0.10;0.00;;;20.30;99.90;;;;;;5004884;28;20979;-84
2022/10/22 11:25:12;;;;;;;0.10;0.00;;;19.90;99.90;;;;;;5007822;28;20447;-86
2022/10/22 11:27:52;;;;;;;0.10;0.00;;;20.60;99.90;;;;;;5002095;28;20444;-85
2022/10/22 11:30:20;;;;;;;0.10;0.00;;;21.00;99.90;;;;;;5008065;28;20520;-86
2022/10/22 11:32:50;;;;;;;0.10;0.00;;;21.50;99.90;;;;;;5007437;28;20530;-87
2022/10/22 11:35:25;;;;;;;0.10;0.00;;;21.90;99.90;;;;;;5009181;28;20490;-85
2022/10/22 11:37:55;;;;;;;0.10;0.10;;;21.80;99.90;;;;;;5009616;28;20585;-86
2022/10/22 11:40:30;;;;;;;0.10;0.00;;;22.40;99.90;;;;;;5008695;28;20443;-85
2022/10/22 11:43:04;;;;;;;0.10;0.00;;;22.40;99.90;;;;;;4994284;28;20442;-87
2022/10/22 11:45:35;;;;;;;0.10;0.00;;;21.60;99.90;;;;;;5002561;28;20439;-84
2022/10/22 11:48:09;;;;;;;0.10;0.00;;;22.10;99.90;;;;;;5007494;28;20951;-84
2022/10/22 11:50:56;;;;;;;0.10;0.00;;;22.30;99.90;;;;;;5000547;28;20442;-85
2022/10/22 11:53:24;;;;;;;0.10;0.00;;;21.80;99.90;;;;;;4988337;28;20524;-84
2022/10/22 11:55:58;;;;;;;0.10;0.00;;;22.60;99.90;;;;;;5006559;28;20450;-84
2022/10/22 11:58:27;;;;;;;0.10;0.00;;;23.00;99.90;;;;;;4987459;28;20483;-83
2022/10/22 12:00:54;;;;;;;0.10;0.00;;;23.70;99.90;;;;;;5004382;28;20582;-85
2022/10/22 12:03:32;;;;;;;0.10;0.00;;;23.60;99.90;;;;;;5004020;28;20503;-84
2022/10/22 12:06:03;;;;;;;0.10;0.00;;;24.40;99.90;;;;;;4991722;28;21059;-83
2022/10/22 12:08:31;;;;;;;0.10;0.00;;;24.60;99.90;;;;;;5002926;28;20441;-84
2022/10/22 12:11:12;;;;;;;0.10;0.00;;;24.80;99.90;;;;;;5002842;28;20438;-85
2022/10/22 12:13:59;;;;;;;0.10;0.00;;;25.00;99.90;;;;;;5003589;28;20463;-84
2022/10/22 12:16:33;;;;;;;0.10;0.00;;;24.00;99.90;;;;;;5000836;28;20517;-84
2022/10/22 12:19:17;;;;;;;0.10;0.00;;;23.90;99.90;;;;;;4989814;28;20452;-83
2022/10/22 12:21:47;;;;;;;0.10;0.00;;;23.90;99.90;;;;;;4991229;28;20962;-82
2022/10/22 12:24:16;;;;;;;0.10;0.00;;;23.60;99.90;;;;;;4994155;28;20480;-82
2022/10/22 12:26:44;;;;;;;0.10;0.00;;;23.90;99.90;;;;;;4991195;28;20461;-83
2022/10/22 12:29:12;;;;;;;0.10;0.00;;;23.00;99.90;;;;;;5000862;28;20443;-83
2022/10/22 12:31:40;;;;;;;0.10;0.00;;;22.20;99.90;;;;;;4990675;28;20434;-85
2022/10/22 12:34:06;;;;;;;0.10;0.00;;;22.10;99.90;;;;;;4977901;28;21252;-84
2022/10/22 12:36:34;;;;;;;0.10;0.00;;;21.90;99.90;;;;;;4990838;28;20468;-84
2022/10/22 12:39:01;;;;;;;0.10;0.00;;;21.70;99.90;;;;;;4995679;28;20605;-86
2022/10/22 12:41:35;;;;;;;0.10;0.10;;;21.60;99.90;;;;;;4992356;28;20486;-88
2022/10/22 12:44:03;;;;;;;0.10;0.00;;;20.90;99.90;;;;;;4999490;28;20558;-87
2022/10/22 12:46:31;;;;;;;0.10;0.00;;;20.40;99.90;;;;;;5002846;28;20454;-87
2022/10/22 12:49:04;;;;;;;0.10;0.00;;;20.10;99.90;;;;;;5000104;28;20529;-89
2022/10/22 12:51:30;;;;;;;0.10;0.00;;;19.50;99.90;;;;;;4994542;28;20530;-88
2022/10/22 12:54:00;;;;;;;0.10;0.00;;;19.20;99.90;;;;;;4982471;28;20490;-87
2022/10/22 12:56:30;;;;;;;0.10;0.00;;;19.20;99.90;;;;;;4994957;28;21555;-88
2022/10/22 12:59:20;;;;;;;0.10;0.00;;;19.00;99.90;;;;;;4987691;28;20481;-88
2022/10/22 13:01:49;;;;;;;0.10;0.00;;;18.70;99.90;;;;;;4983127;28;20542;-88
2022/10/22 13:04:31;;;;;;;0.10;0.00;;;19.50;99.90;;;;;;5010129;28;20562;-88
2022/10/22 13:07:05;;;;;;;0.10;0.00;;;19.60;99.90;;;;;;4988139;28;20550;-88
2022/10/22 13:09:47;;;;;;;0.10;0.00;;;19.50;99.90;;;;;;4991629;28;20436;-87